sensor_id;sensor_type;location;lat;lon;timestamp;temperature;humidity
14473;DHT22;7322;50.872;4.386;2022-08-01T00:01:29;21.90;99.90
14473;DHT22;7322;50.872;4.386;2022-08-01T00:04:04;21.60;99.90
14473;DHT22;7322;50.872;4.386;2022-08-01T00:06:35;21.70;99.90
14473;DHT22;7322;50.872;4.386;2022-08-01T00:09:02;21.70;99.90
14473;DHT22;7322;50.872;4.386;2022-08-01T00:11:30;21.60;99.90
14473;DHT22;7322;50.872;4.386;2022-08-01T00:13:56;21.60;99.90
14473;DHT22;7322;50.872;4.386;2022-08-01T00:16:23;21.60;99.90
14473;DHT22;7322;50.872;4.386;2022-08-01T00:18:51;21.60;99.90
14473;DHT22;7322;50.872;4.386;2022-08-01T00:21:18;21.40;99.90
14473;DHT22;7322;50.872;4.386;2022-08-01T00:23:46;21.40;99.90
14473;DHT22;7322;50.872;4.386;2022-08-01T00:26:14;21.40;99.90
14473;DHT22;7322;50.872;4.386;2022-08-01T00:28:41;21.50;99.90
14473;DHT22;7322;50.872;4.386;2022-08-01T00:31:08;21.60;99.90
14473;DHT22;7322;50.872;4.386;2022-08-01T00:33:35;21.70;99.90
14473;DHT22;7322;50.872;4.386;2022-08-01T00:36:02;21.70;99.90
14473;DHT22;7322;50.872;4.386;2022-08-01T00:38:29;21.60;99.90
14473;DHT22;7322;50.872;4.386;2022-08-01T00:40:58;21.60;99.90
14473;DHT22;7322;50.872;4.386;2022-08-01T00:43:25;21.50;99.90
14473;DHT22;7322;50.872;4.386;2022-08-01T00:45:52;21.40;99.90
14473;DHT22;7322;50.872;4.386;2022-08-01T00:48:19;21.50;99.90
14473;DHT22;7322;50.872;4.386;2022-08-01T00:50:46;21.50;99.90
14473;DHT22;7322;50.872;4.386;2022-08-01T00:53:13;21.50;99.90
14473;DHT22;7322;50.872;4.386;2022-08-01T00:55:41;21.40;99.90
14473;DHT22;7322;50.872;4.386;2022-08-01T00:58:10;21.40;99.90
14473;DHT22;7322;50.872;4.386;2022-08-01T01:00:37;21.30;99.90
14473;DHT22;7322;50.872;4.386;2022-08-01T01:03:04;21.30;99.90
14473;DHT22;7322;50.872;4.386;2022-08-01T01:05:39;21.40;99.90
14473;DHT22;7322;50.872;4.386;2022-08-01T01:08:13;21.30;99.90
14473;DHT22;7322;50.872;4.386;2022-08-01T01:10:46;21.20;99.90
14473;DHT22;7322;50.872;4.386;2022-08-01T01:13:22;21.20;99.90
14473;DHT22;7322;50.872;4.386;2022-08-01T01:15:53;21.30;99.90
14473;DHT22;7322;50.872;4.386;2022-08-01T01:18:24;21.30;99.90
14473;DHT22;7322;50.872;4.386;2022-08-01T01:20:56;21.30;99.90
14473;DHT22;7322;50.872;4.386;2022-08-01T01:23:36;21.30;99.90
14473;DHT22;7322;50.872;4.386;2022-08-01T01:26:21;21.30;99.90
14473;DHT22;7322;50.872;4.386;2022-08-01T01:29:02;21.30;99.90
14473;DHT22;7322;50.872;4.386;2022-08-01T01:31:37;21.30;99.90
14473;DHT22;7322;50.872;4.386;2022-08-01T01:34:04;21.20;99.90
14473;DHT22;7322;50.872;4.386;2022-08-01T01:36:32;21.20;99.90
14473;DHT22;7322;50.872;4.386;2022-08-01T01:39:00;21.20;99.90
14473;DHT22;7322;50.872;4.386;2022-08-01T01:41:28;21.10;99.90
14473;DHT22;7322;50.872;4.386;2022-08-01T01:43:59;21.00;99.90
14473;DHT22;7322;50.872;4.386;2022-08-01T01:46:28;21.00;99.90
14473;DHT22;7322;50.872;4.386;2022-08-01T01:48:57;21.00;99.90
14473;DHT22;7322;50.872;4.386;2022-08-01T01:51:26;20.90;99.90
14473;DHT22;7322;50.872;4.386;2022-08-01T01:53:56;20.80;99.90
14473;DHT22;7322;50.872;4.386;2022-08-01T01:56:25;20.90;99.90
14473;DHT22;7322;50.872;4.386;2022-08-01T01:58:54;20.80;99.90
14473;DHT22;7322;50.872;4.386;2022-08-01T02:01:27;20.70;99.90
14473;DHT22;7322;50.872;4.386;2022-08-01T02:03:55;20.70;99.90
14473;DHT22;7322;50.872;4.386;2022-08-01T02:06:23;20.60;99.90
14473;DHT22;7322;50.872;4.386;2022-08-01T02:08:52;20.70;99.90
14473;DHT22;7322;50.872;4.386;2022-08-01T02:11:20;20.80;99.90
14473;DHT22;7322;50.872;4.386;2022-08-01T02:13:52;20.80;99.90
14473;DHT22;7322;50.872;4.386;2022-08-01T02:16:23;20.80;99.90
14473;DHT22;7322;50.872;4.386;2022-08-01T02:18:53;20.70;99.90
14473;DHT22;7322;50.872;4.386;2022-08-01T02:21:30;20.60;99.90
14473;DHT22;7322;50.872;4.386;2022-08-01T02:24:03;20.80;99.90
14473;DHT22;7322;50.872;4.386;2022-08-01T02:26:34;20.80;99.90
14473;DHT22;7322;50.872;4.386;2022-08-01T02:29:07;20.80;99.90
14473;DHT22;7322;50.872;4.386;2022-08-01T02:31:38;20.80;99.90
14473;DHT22;7322;50.872;4.386;2022-08-01T02:34:18;20.80;99.90
14473;DHT22;7322;50.872;4.386;2022-08-01T02:36:56;20.70;99.90
14473;DHT22;7322;50.872;4.386;2022-08-01T02:39:27;20.80;99.90
14473;DHT22;7322;50.872;4.386;2022-08-01T02:41:57;20.70;99.90
14473;DHT22;7322;50.872;4.386;2022-08-01T02:44:30;20.60;99.90
14473;DHT22;7322;50.872;4.386;2022-08-01T02:47:00;20.60;99.90
14473;DHT22;7322;50.872;4.386;2022-08-01T02:49:30;20.60;99.90
14473;DHT22;7322;50.872;4.386;2022-08-01T02:52:01;20.60;99.90
14473;DHT22;7322;50.872;4.386;2022-08-01T02:54:30;20.60;99.90
14473;DHT22;7322;50.872;4.386;2022-08-01T02:57:00;20.70;99.90
14473;DHT22;7322;50.872;4.386;2022-08-01T02:59:31;20.80;99.90
14473;DHT22;7322;50.872;4.386;2022-08-01T03:02:01;20.60;99.90
14473;DHT22;7322;50.872;4.386;2022-08-01T03:04:44;20.50;99.90
14473;DHT22;7322;50.872;4.386;2022-08-01T03:07:22;20.50;99.90
14473;DHT22;7322;50.872;4.386;2022-08-01T03:09:58;20.40;99.90
14473;DHT22;7322;50.872;4.386;2022-08-01T03:12:27;20.50;99.90
14473;DHT22;7322;50.872;4.386;2022-08-01T03:14:57;20.60;99.90
14473;DHT22;7322;50.872;4.386;2022-08-01T03:17:27;20.60;99.90
14473;DHT22;7322;50.872;4.386;2022-08-01T03:19:57;20.80;99.90
14473;DHT22;7322;50.872;4.386;2022-08-01T03:22:27;20.80;99.90
14473;DHT22;7322;50.872;4.386;2022-08-01T03:24:56;20.60;99.90
14473;DHT22;7322;50.872;4.386;2022-08-01T03:27:25;20.60;99.90
14473;DHT22;7322;50.872;4.386;2022-08-01T03:29:55;20.50;99.90
14473;DHT22;7322;50.872;4.386;2022-08-01T03:32:23;20.50;99.90
14473;DHT22;7322;50.872;4.386;2022-08-01T03:34:51;20.50;99.90
14473;DHT22;7322;50.872;4.386;2022-08-01T03:37:24;20.60;99.90
14473;DHT22;7322;50.872;4.386;2022-08-01T03:39:57;20.60;99.90
14473;DHT22;7322;50.872;4.386;2022-08-01T03:42:31;20.50;99.90
14473;DHT22;7322;50.872;4.386;2022-08-01T03:45:00;20.20;99.90
14473;DHT22;7322;50.872;4.386;2022-08-01T03:47:31;20.10;99.90
14473;DHT22;7322;50.872;4.386;2022-08-01T03:50:00;20.00;99.90
14473;DHT22;7322;50.872;4.386;2022-08-01T03:52:32;20.00;99.90
14473;DHT22;7322;50.872;4.386;2022-08-01T03:55:04;20.00;99.90
14473;DHT22;7322;50.872;4.386;2022-08-01T03:57:33;20.00;99.90
14473;DHT22;7322;50.872;4.386;2022-08-01T04:00:05;20.00;99.90
14473;DHT22;7322;50.872;4.386;2022-08-01T04:02:34;19.90;99.90
14473;DHT22;7322;50.872;4.386;2022-08-01T04:05:02;19.90;99.90
14473;DHT22;7322;50.872;4.386;2022-08-01T04:07:32;20.00;99.90
14473;DHT22;7322;50.872;4.386;2022-08-01T04:10:02;19.90;99.90
14473;DHT22;7322;50.872;4.386;2022-08-01T04:12:31;19.70;99.90
14473;DHT22;7322;50.872;4.386;2022-08-01T04:14:58;19.60;99.90
14473;DHT22;7322;50.872;4.386;2022-08-01T04:17:25;19.60;99.90
14473;DHT22;7322;50.872;4.386;2022-08-01T04:19:52;19.60;99.90
14473;DHT22;7322;50.872;4.386;2022-08-01T04:22:20;19.50;99.90
14473;DHT22;7322;50.872;4.386;2022-08-01T04:24:53;19.50;99.90
14473;DHT22;7322;50.872;4.386;2022-08-01T04:27:27;19.50;99.90
14473;DHT22;7322;50.872;4.386;2022-08-01T04:30:06;19.60;99.90
14473;DHT22;7322;50.872;4.386;2022-08-01T04:32:45;19.70;99.90
14473;DHT22;7322;50.872;4.386;2022-08-01T04:35:36;19.80;99.90
14473;DHT22;7322;50.872;4.386;2022-08-01T04:44:24;19.80;99.90
14473;DHT22;7322;50.872;4.386;2022-08-01T04:50:32;19.90;99.90
14473;DHT22;7322;50.872;4.386;2022-08-01T04:53:12;19.80;99.90
14473;DHT22;7322;50.872;4.386;2022-08-01T05:05:18;19.90;99.90
14473;DHT22;7322;50.872;4.386;2022-08-01T05:17:37;20.40;99.90
14473;DHT22;7322;50.872;4.386;2022-08-01T05:20:06;20.40;99.90
14473;DHT22;7322;50.872;4.386;2022-08-01T05:22:37;20.40;99.90
14473;DHT22;7322;50.872;4.386;2022-08-01T05:25:06;20.50;99.90
14473;DHT22;7322;50.872;4.386;2022-08-01T05:27:33;20.60;99.90
14473;DHT22;7322;50.872;4.386;2022-08-01T05:30:05;20.60;99.90
14473;DHT22;7322;50.872;4.386;2022-08-01T05:32:33;20.60;99.90
14473;DHT22;7322;50.872;4.386;2022-08-01T05:35:02;20.70;99.90
14473;DHT22;7322;50.872;4.386;2022-08-01T05:37:30;20.60;99.90
14473;DHT22;7322;50.872;4.386;2022-08-01T05:39:59;20.50;99.90
14473;DHT22;7322;50.872;4.386;2022-08-01T05:42:25;20.50;99.90
14473;DHT22;7322;50.872;4.386;2022-08-01T05:44:52;20.50;99.90
14473;DHT22;7322;50.872;4.386;2022-08-01T05:47:19;20.60;99.90
14473;DHT22;7322;50.872;4.386;2022-08-01T05:49:51;20.70;99.90
14473;DHT22;7322;50.872;4.386;2022-08-01T05:52:27;20.80;99.90
14473;DHT22;7322;50.872;4.386;2022-08-01T05:55:08;20.70;99.90
14473;DHT22;7322;50.872;4.386;2022-08-01T05:57:37;20.70;99.90
14473;DHT22;7322;50.872;4.386;2022-08-01T06:03:47;20.90;99.90
14473;DHT22;7322;50.872;4.386;2022-08-01T06:12:34;21.10;99.90
14473;DHT22;7322;50.872;4.386;2022-08-01T06:15:29;21.10;99.90
14473;DHT22;7322;50.872;4.386;2022-08-01T06:17:57;21.10;99.90
14473;DHT22;7322;50.872;4.386;2022-08-01T06:20:24;21.00;99.90
14473;DHT22;7322;50.872;4.386;2022-08-01T06:22:52;21.20;99.90
14473;DHT22;7322;50.872;4.386;2022-08-01T06:25:20;21.20;99.90
14473;DHT22;7322;50.872;4.386;2022-08-01T06:27:48;21.20;99.90
14473;DHT22;7322;50.872;4.386;2022-08-01T06:30:15;21.30;99.90
14473;DHT22;7322;50.872;4.386;2022-08-01T06:32:56;21.40;99.90
14473;DHT22;7322;50.872;4.386;2022-08-01T06:35:43;21.40;99.90
14473;DHT22;7322;50.872;4.386;2022-08-01T06:45:10;22.00;99.90
14473;DHT22;7322;50.872;4.386;2022-08-01T06:51:08;22.40;99.90
14473;DHT22;7322;50.872;4.386;2022-08-01T06:54:04;22.20;99.90
14473;DHT22;7322;50.872;4.386;2022-08-01T06:56:31;22.30;99.90
14473;DHT22;7322;50.872;4.386;2022-08-01T06:59:02;22.40;99.90
14473;DHT22;7322;50.872;4.386;2022-08-01T07:01:48;22.70;99.90
14473;DHT22;7322;50.872;4.386;2022-08-01T07:04:21;22.80;99.90
14473;DHT22;7322;50.872;4.386;2022-08-01T07:06:48;22.60;99.90
14473;DHT22;7322;50.872;4.386;2022-08-01T07:09:15;22.80;99.90
14473;DHT22;7322;50.872;4.386;2022-08-01T07:11:42;23.00;99.90
14473;DHT22;7322;50.872;4.386;2022-08-01T07:14:09;23.00;99.90
14473;DHT22;7322;50.872;4.386;2022-08-01T07:16:36;23.20;99.90
14473;DHT22;7322;50.872;4.386;2022-08-01T07:19:04;23.40;99.90
14473;DHT22;7322;50.872;4.386;2022-08-01T07:21:31;23.60;99.90
14473;DHT22;7322;50.872;4.386;2022-08-01T07:23:58;23.70;99.90
14473;DHT22;7322;50.872;4.386;2022-08-01T07:26:25;23.60;99.90
14473;DHT22;7322;50.872;4.386;2022-08-01T07:28:53;23.60;99.90
14473;DHT22;7322;50.872;4.386;2022-08-01T07:31:20;23.80;99.90
14473;DHT22;7322;50.872;4.386;2022-08-01T07:33:50;23.90;99.90
14473;DHT22;7322;50.872;4.386;2022-08-01T07:36:19;23.80;99.90
14473;DHT22;7322;50.872;4.386;2022-08-01T07:38:48;23.60;99.90
14473;DHT22;7322;50.872;4.386;2022-08-01T07:41:46;23.50;99.90
14473;DHT22;7322;50.872;4.386;2022-08-01T07:44:28;23.40;99.90
14473;DHT22;7322;50.872;4.386;2022-08-01T07:46:56;23.80;99.90
14473;DHT22;7322;50.872;4.386;2022-08-01T07:49:23;23.60;99.90
14473;DHT22;7322;50.872;4.386;2022-08-01T07:51:51;23.70;99.90
14473;DHT22;7322;50.872;4.386;2022-08-01T07:54:20;23.80;99.90
14473;DHT22;7322;50.872;4.386;2022-08-01T07:56:49;23.70;99.90
14473;DHT22;7322;50.872;4.386;2022-08-01T07:59:16;24.00;99.90
14473;DHT22;7322;50.872;4.386;2022-08-01T08:01:48;24.00;99.90
14473;DHT22;7322;50.872;4.386;2022-08-01T08:04:16;24.30;99.90
14473;DHT22;7322;50.872;4.386;2022-08-01T08:09:52;24.80;99.90
14473;DHT22;7322;50.872;4.386;2022-08-01T08:15:28;25.00;99.90
14473;DHT22;7322;50.872;4.386;2022-08-01T08:18:07;25.50;99.90
14473;DHT22;7322;50.872;4.386;2022-08-01T08:20:35;25.30;99.90
14473;DHT22;7322;50.872;4.386;2022-08-01T08:23:14;25.10;99.90
14473;DHT22;7322;50.872;4.386;2022-08-01T08:25:59;25.00;99.90
14473;DHT22;7322;50.872;4.386;2022-08-01T08:28:59;24.90;99.90
14473;DHT22;7322;50.872;4.386;2022-08-01T08:31:36;24.60;99.90
14473;DHT22;7322;50.872;4.386;2022-08-01T08:34:03;24.20;99.90
14473;DHT22;7322;50.872;4.386;2022-08-01T08:36:30;24.40;99.90
14473;DHT22;7322;50.872;4.386;2022-08-01T08:38:57;25.30;99.90
14473;DHT22;7322;50.872;4.386;2022-08-01T08:41:29;25.80;99.90
14473;DHT22;7322;50.872;4.386;2022-08-01T08:43:56;26.30;99.90
14473;DHT22;7322;50.872;4.386;2022-08-01T08:46:27;26.70;99.90
14473;DHT22;7322;50.872;4.386;2022-08-01T08:48:55;27.10;99.90
14473;DHT22;7322;50.872;4.386;2022-08-01T08:51:24;27.60;99.90
14473;DHT22;7322;50.872;4.386;2022-08-01T08:53:54;26.60;99.90
14473;DHT22;7322;50.872;4.386;2022-08-01T08:56:23;26.70;99.90
14473;DHT22;7322;50.872;4.386;2022-08-01T08:58:53;26.60;99.90
14473;DHT22;7322;50.872;4.386;2022-08-01T09:01:20;26.60;99.90
14473;DHT22;7322;50.872;4.386;2022-08-01T09:03:48;26.80;99.90
14473;DHT22;7322;50.872;4.386;2022-08-01T09:06:15;27.00;99.90
14473;DHT22;7322;50.872;4.386;2022-08-01T09:08:42;26.20;99.90
14473;DHT22;7322;50.872;4.386;2022-08-01T09:11:09;25.80;99.90
14473;DHT22;7322;50.872;4.386;2022-08-01T09:13:36;25.70;99.90
14473;DHT22;7322;50.872;4.386;2022-08-01T09:16:05;25.30;99.90
14473;DHT22;7322;50.872;4.386;2022-08-01T09:18:33;25.30;99.90
14473;DHT22;7322;50.872;4.386;2022-08-01T09:21:12;25.30;99.90
14473;DHT22;7322;50.872;4.386;2022-08-01T09:23:42;25.30;99.90
14473;DHT22;7322;50.872;4.386;2022-08-01T09:26:13;24.80;99.90
14473;DHT22;7322;50.872;4.386;2022-08-01T09:28:42;25.10;99.90
14473;DHT22;7322;50.872;4.386;2022-08-01T09:31:14;25.50;99.90
14473;DHT22;7322;50.872;4.386;2022-08-01T09:33:53;25.80;99.90
14473;DHT22;7322;50.872;4.386;2022-08-01T09:36:22;25.60;99.90
14473;DHT22;7322;50.872;4.386;2022-08-01T09:38:50;26.00;99.90
14473;DHT22;7322;50.872;4.386;2022-08-01T09:41:28;26.60;99.90
14473;DHT22;7322;50.872;4.386;2022-08-01T09:43:56;27.20;99.90
14473;DHT22;7322;50.872;4.386;2022-08-01T09:46:26;28.40;99.90
14473;DHT22;7322;50.872;4.386;2022-08-01T09:48:59;29.90;99.90
14473;DHT22;7322;50.872;4.386;2022-08-01T09:51:31;30.80;99.90
14473;DHT22;7322;50.872;4.386;2022-08-01T09:53:59;30.70;99.90
14473;DHT22;7322;50.872;4.386;2022-08-01T09:56:26;30.10;99.90
14473;DHT22;7322;50.872;4.386;2022-08-01T09:59:02;30.30;99.90
14473;DHT22;7322;50.872;4.386;2022-08-01T10:01:43;29.40;99.90
14473;DHT22;7322;50.872;4.386;2022-08-01T10:04:13;29.20;99.90
14473;DHT22;7322;50.872;4.386;2022-08-01T10:06:42;28.80;99.90
14473;DHT22;7322;50.872;4.386;2022-08-01T10:09:29;28.80;99.90
14473;DHT22;7322;50.872;4.386;2022-08-01T10:15:04;27.90;99.90
14473;DHT22;7322;50.872;4.386;2022-08-01T10:17:55;27.90;99.90
14473;DHT22;7322;50.872;4.386;2022-08-01T10:20:25;27.80;99.90
14473;DHT22;7322;50.872;4.386;2022-08-01T10:22:54;27.70;99.90
14473;DHT22;7322;50.872;4.386;2022-08-01T10:25:22;28.00;99.90
14473;DHT22;7322;50.872;4.386;2022-08-01T10:27:52;28.30;99.90
14473;DHT22;7322;50.872;4.386;2022-08-01T10:30:20;28.20;99.90
14473;DHT22;7322;50.872;4.386;2022-08-01T10:32:52;27.70;99.90
14473;DHT22;7322;50.872;4.386;2022-08-01T10:35:21;27.60;99.90
14473;DHT22;7322;50.872;4.386;2022-08-01T10:37:48;27.70;99.90
14473;DHT22;7322;50.872;4.386;2022-08-01T10:40:18;27.90;99.90
14473;DHT22;7322;50.872;4.386;2022-08-01T10:42:45;28.50;99.90
14473;DHT22;7322;50.872;4.386;2022-08-01T10:45:14;28.90;99.90
14473;DHT22;7322;50.872;4.386;2022-08-01T10:47:46;29.70;99.90
14473;DHT22;7322;50.872;4.386;2022-08-01T10:50:24;29.40;99.90
14473;DHT22;7322;50.872;4.386;2022-08-01T10:53:08;29.80;99.90
14473;DHT22;7322;50.872;4.386;2022-08-01T10:55:47;29.30;99.90
14473;DHT22;7322;50.872;4.386;2022-08-01T10:58:19;29.70;99.90
14473;DHT22;7322;50.872;4.386;2022-08-01T11:00:46;29.40;99.90
14473;DHT22;7322;50.872;4.386;2022-08-01T11:03:13;29.50;99.90
14473;DHT22;7322;50.872;4.386;2022-08-01T11:05:43;29.90;99.90
14473;DHT22;7322;50.872;4.386;2022-08-01T11:08:22;29.40;99.90
14473;DHT22;7322;50.872;4.386;2022-08-01T11:10:59;28.80;99.90
14473;DHT22;7322;50.872;4.386;2022-08-01T11:16:28;29.10;99.90
14473;DHT22;7322;50.872;4.386;2022-08-01T11:18:55;29.00;99.90
14473;DHT22;7322;50.872;4.386;2022-08-01T11:21:59;29.80;99.90
14473;DHT22;7322;50.872;4.386;2022-08-01T11:24:55;30.20;99.90
14473;DHT22;7322;50.872;4.386;2022-08-01T11:27:25;29.70;99.90
14473;DHT22;7322;50.872;4.386;2022-08-01T11:30:26;30.40;99.90
14473;DHT22;7322;50.872;4.386;2022-08-01T11:32:54;30.40;99.80
14473;DHT22;7322;50.872;4.386;2022-08-01T11:35:23;30.00;99.90
14473;DHT22;7322;50.872;4.386;2022-08-01T11:37:54;30.60;99.90
14473;DHT22;7322;50.872;4.386;2022-08-01T11:40:23;30.80;98.80
14473;DHT22;7322;50.872;4.386;2022-08-01T11:43:17;30.50;97.70
14473;DHT22;7322;50.872;4.386;2022-08-01T11:45:48;31.10;97.60
14473;DHT22;7322;50.872;4.386;2022-08-01T11:48:19;31.90;95.70
14473;DHT22;7322;50.872;4.386;2022-08-01T11:50:46;32.30;92.50
14473;DHT22;7322;50.872;4.386;2022-08-01T11:53:15;32.10;92.30
14473;DHT22;7322;50.872;4.386;2022-08-01T11:55:46;31.80;92.20
14473;DHT22;7322;50.872;4.386;2022-08-01T11:58:20;31.40;93.10
14473;DHT22;7322;50.872;4.386;2022-08-01T12:00:50;31.20;93.40
14473;DHT22;7322;50.872;4.386;2022-08-01T12:03:24;31.20;93.80
14473;DHT22;7322;50.872;4.386;2022-08-01T12:05:54;30.90;94.30
14473;DHT22;7322;50.872;4.386;2022-08-01T12:08:26;30.40;95.30
14473;DHT22;7322;50.872;4.386;2022-08-01T12:10:53;31.10;95.00
14473;DHT22;7322;50.872;4.386;2022-08-01T12:13:21;31.70;93.40
14473;DHT22;7322;50.872;4.386;2022-08-01T12:15:48;31.80;92.50
14473;DHT22;7322;50.872;4.386;2022-08-01T12:18:16;31.60;92.70
14473;DHT22;7322;50.872;4.386;2022-08-01T12:20:45;31.60;92.30
14473;DHT22;7322;50.872;4.386;2022-08-01T12:23:15;31.70;90.80
14473;DHT22;7322;50.872;4.386;2022-08-01T12:25:44;31.80;90.10
14473;DHT22;7322;50.872;4.386;2022-08-01T12:28:11;31.70;88.60
14473;DHT22;7322;50.872;4.386;2022-08-01T12:30:40;31.10;90.40
14473;DHT22;7322;50.872;4.386;2022-08-01T12:33:08;30.90;90.60
14473;DHT22;7322;50.872;4.386;2022-08-01T12:35:37;31.10;90.70
14473;DHT22;7322;50.872;4.386;2022-08-01T12:38:14;31.00;90.20
14473;DHT22;7322;50.872;4.386;2022-08-01T12:40:47;31.00;89.80
14473;DHT22;7322;50.872;4.386;2022-08-01T12:43:20;31.00;89.10
14473;DHT22;7322;50.872;4.386;2022-08-01T12:46:02;31.00;89.40
14473;DHT22;7322;50.872;4.386;2022-08-01T12:51:24;31.50;87.40
14473;DHT22;7322;50.872;4.386;2022-08-01T12:53:51;31.30;89.30
14473;DHT22;7322;50.872;4.386;2022-08-01T12:56:31;31.40;89.70
14473;DHT22;7322;50.872;4.386;2022-08-01T12:58:58;31.60;88.50
14473;DHT22;7322;50.872;4.386;2022-08-01T13:01:27;31.80;87.90
14473;DHT22;7322;50.872;4.386;2022-08-01T13:03:59;32.00;89.00
14473;DHT22;7322;50.872;4.386;2022-08-01T13:06:28;32.00;87.50
14473;DHT22;7322;50.872;4.386;2022-08-01T13:09:04;31.90;87.00
14473;DHT22;7322;50.872;4.386;2022-08-01T13:11:33;31.80;87.30
14473;DHT22;7322;50.872;4.386;2022-08-01T13:14:01;31.60;87.50
14473;DHT22;7322;50.872;4.386;2022-08-01T13:16:28;30.60;90.50
14473;DHT22;7322;50.872;4.386;2022-08-01T13:18:56;30.20;91.50
14473;DHT22;7322;50.872;4.386;2022-08-01T13:21:25;29.70;91.40
14473;DHT22;7322;50.872;4.386;2022-08-01T13:24:03;29.10;92.30
14473;DHT22;7322;50.872;4.386;2022-08-01T13:26:42;29.10;92.30
14473;DHT22;7322;50.872;4.386;2022-08-01T13:29:11;29.70;92.30
14473;DHT22;7322;50.872;4.386;2022-08-01T13:31:40;30.20;91.60
14473;DHT22;7322;50.872;4.386;2022-08-01T13:34:08;30.80;90.50
14473;DHT22;7322;50.872;4.386;2022-08-01T13:36:36;30.90;87.10
14473;DHT22;7322;50.872;4.386;2022-08-01T13:39:11;30.50;87.50
14473;DHT22;7322;50.872;4.386;2022-08-01T13:41:58;30.20;86.40
14473;DHT22;7322;50.872;4.386;2022-08-01T13:44:26;30.00;86.40
14473;DHT22;7322;50.872;4.386;2022-08-01T13:46:53;29.30;89.20
14473;DHT22;7322;50.872;4.386;2022-08-01T13:49:21;29.60;89.80
14473;DHT22;7322;50.872;4.386;2022-08-01T13:51:48;30.00;87.30
14473;DHT22;7322;50.872;4.386;2022-08-01T13:54:16;30.10;86.70
14473;DHT22;7322;50.872;4.386;2022-08-01T13:56:43;30.60;86.00
14473;DHT22;7322;50.872;4.386;2022-08-01T13:59:36;30.70;85.10
14473;DHT22;7322;50.872;4.386;2022-08-01T14:02:15;31.20;84.00
14473;DHT22;7322;50.872;4.386;2022-08-01T14:04:43;31.70;81.70
14473;DHT22;7322;50.872;4.386;2022-08-01T14:10:03;31.80;80.50
14473;DHT22;7322;50.872;4.386;2022-08-01T14:12:39;32.00;78.80
14473;DHT22;7322;50.872;4.386;2022-08-01T14:15:08;32.00;77.60
14473;DHT22;7322;50.872;4.386;2022-08-01T14:17:35;32.00;76.70
14473;DHT22;7322;50.872;4.386;2022-08-01T14:20:03;32.10;75.80
14473;DHT22;7322;50.872;4.386;2022-08-01T14:22:32;32.20;73.80
14473;DHT22;7322;50.872;4.386;2022-08-01T14:25:05;32.00;74.60
14473;DHT22;7322;50.872;4.386;2022-08-01T14:27:33;31.90;73.20
14473;DHT22;7322;50.872;4.386;2022-08-01T14:30:07;31.50;73.60
14473;DHT22;7322;50.872;4.386;2022-08-01T14:32:37;31.20;75.50
14473;DHT22;7322;50.872;4.386;2022-08-01T14:35:05;30.90;76.40
14473;DHT22;7322;50.872;4.386;2022-08-01T14:37:33;30.70;77.10
14473;DHT22;7322;50.872;4.386;2022-08-01T14:40:06;30.50;77.90
14473;DHT22;7322;50.872;4.386;2022-08-01T14:42:39;30.30;78.30
14473;DHT22;7322;50.872;4.386;2022-08-01T14:45:31;30.10;78.20
14473;DHT22;7322;50.872;4.386;2022-08-01T14:48:04;30.30;78.80
14473;DHT22;7322;50.872;4.386;2022-08-01T14:50:31;30.10;77.30
14473;DHT22;7322;50.872;4.386;2022-08-01T14:56:06;29.80;80.40
14473;DHT22;7322;50.872;4.386;2022-08-01T14:58:34;29.70;78.90
14473;DHT22;7322;50.872;4.386;2022-08-01T15:01:08;29.40;79.00
14473;DHT22;7322;50.872;4.386;2022-08-01T15:03:38;29.30;80.00
14473;DHT22;7322;50.872;4.386;2022-08-01T15:06:07;29.30;80.30
14473;DHT22;7322;50.872;4.386;2022-08-01T15:08:36;29.40;79.30
14473;DHT22;7322;50.872;4.386;2022-08-01T15:11:03;29.30;80.90
14473;DHT22;7322;50.872;4.386;2022-08-01T15:13:30;29.30;80.90
14473;DHT22;7322;50.872;4.386;2022-08-01T15:15:58;29.20;81.50
14473;DHT22;7322;50.872;4.386;2022-08-01T15:18:26;29.00;82.10
14473;DHT22;7322;50.872;4.386;2022-08-01T15:20:54;28.90;82.30
14473;DHT22;7322;50.872;4.386;2022-08-01T15:23:21;28.90;82.20
14473;DHT22;7322;50.872;4.386;2022-08-01T15:25:48;28.50;82.70
14473;DHT22;7322;50.872;4.386;2022-08-01T15:28:15;28.30;86.00
14473;DHT22;7322;50.872;4.386;2022-08-01T15:30:42;28.30;83.30
14473;DHT22;7322;50.872;4.386;2022-08-01T15:33:09;28.20;85.10
14473;DHT22;7322;50.872;4.386;2022-08-01T15:35:37;28.40;84.60
14473;DHT22;7322;50.872;4.386;2022-08-01T15:38:04;28.40;84.50
14473;DHT22;7322;50.872;4.386;2022-08-01T15:40:31;28.50;83.60
14473;DHT22;7322;50.872;4.386;2022-08-01T15:43:00;28.70;83.20
14473;DHT22;7322;50.872;4.386;2022-08-01T15:45:28;28.70;82.70
14473;DHT22;7322;50.872;4.386;2022-08-01T15:47:55;28.30;85.30
14473;DHT22;7322;50.872;4.386;2022-08-01T15:50:22;28.40;85.40
14473;DHT22;7322;50.872;4.386;2022-08-01T15:52:51;28.40;85.20
14473;DHT22;7322;50.872;4.386;2022-08-01T15:55:20;28.30;86.40
14473;DHT22;7322;50.872;4.386;2022-08-01T15:57:55;28.30;84.60
14473;DHT22;7322;50.872;4.386;2022-08-01T16:00:22;28.30;84.80
14473;DHT22;7322;50.872;4.386;2022-08-01T16:03:07;28.30;85.20
14473;DHT22;7322;50.872;4.386;2022-08-01T16:05:56;28.20;83.80
14473;DHT22;7322;50.872;4.386;2022-08-01T16:08:50;28.40;84.10
14473;DHT22;7322;50.872;4.386;2022-08-01T16:11:19;28.50;83.30
14473;DHT22;7322;50.872;4.386;2022-08-01T16:13:49;28.30;83.50
14473;DHT22;7322;50.872;4.386;2022-08-01T16:16:16;28.10;84.80
14473;DHT22;7322;50.872;4.386;2022-08-01T16:18:51;27.90;87.10
14473;DHT22;7322;50.872;4.386;2022-08-01T16:21:52;27.80;89.50
14473;DHT22;7322;50.872;4.386;2022-08-01T16:24:24;27.80;87.30
14473;DHT22;7322;50.872;4.386;2022-08-01T16:27:03;28.10;85.40
14473;DHT22;7322;50.872;4.386;2022-08-01T16:29:46;28.00;87.20
14473;DHT22;7322;50.872;4.386;2022-08-01T16:32:13;27.70;87.20
14473;DHT22;7322;50.872;4.386;2022-08-01T16:34:40;27.70;88.80
14473;DHT22;7322;50.872;4.386;2022-08-01T16:37:08;27.70;88.40
14473;DHT22;7322;50.872;4.386;2022-08-01T16:39:36;27.60;88.60
14473;DHT22;7322;50.872;4.386;2022-08-01T16:42:05;27.30;90.50
14473;DHT22;7322;50.872;4.386;2022-08-01T16:44:32;27.00;91.90
14473;DHT22;7322;50.872;4.386;2022-08-01T16:47:00;26.90;92.20
14473;DHT22;7322;50.872;4.386;2022-08-01T16:49:27;27.00;92.40
14473;DHT22;7322;50.872;4.386;2022-08-01T16:51:56;26.90;92.80
14473;DHT22;7322;50.872;4.386;2022-08-01T16:54:23;27.20;91.00
14473;DHT22;7322;50.872;4.386;2022-08-01T16:56:51;26.90;91.70
14473;DHT22;7322;50.872;4.386;2022-08-01T16:59:18;27.10;91.50
14473;DHT22;7322;50.872;4.386;2022-08-01T17:01:45;27.20;91.40
14473;DHT22;7322;50.872;4.386;2022-08-01T17:04:13;27.10;91.20
14473;DHT22;7322;50.872;4.386;2022-08-01T17:06:44;27.10;90.10
14473;DHT22;7322;50.872;4.386;2022-08-01T17:09:11;27.10;90.00
14473;DHT22;7322;50.872;4.386;2022-08-01T17:11:46;27.20;89.50
14473;DHT22;7322;50.872;4.386;2022-08-01T17:14:17;27.10;89.20
14473;DHT22;7322;50.872;4.386;2022-08-01T17:16:46;27.00;90.50
14473;DHT22;7322;50.872;4.386;2022-08-01T17:19:13;27.00;88.40
14473;DHT22;7322;50.872;4.386;2022-08-01T17:21:40;27.00;87.80